• Join FlightAware (Why Join?)
  • Login
  • US Flag 
12:29AM EST


 

Airport Tracker/Info


-or-


 

Live Flight TrackerFlight Track Log ✈ SWA896 ✈ 16-Apr-2013 ✈ KBUF - KLAS

Flight Track Log - Related Links

Times and Time Zones

All times are in EDT time to prevent confusion due to time zone crossing. See the SWA896 flight status page for this flight to view local times or setup timezone preferences in your user account.

Time Position Orientation Groundspeed Altitude Reporting Facility
EDT Latitude Longitude Course Direction KTS MPH feet Rate Location/Type
08:08AM 42.9167 -78.7500 216° Southwest 139 160 2,500  Level Buffalo TRACON
08:09AM 42.8833 -78.7833 216° Southwest 192 221 3,900 1,680 Climbing Buffalo TRACON
08:10AM 42.8364 -78.8108 203° Southwest 231 266 5,900 2,640 Climbing Cleveland Center
08:11AM 42.7681 -78.8411 198° South 247 284 9,100 2,820 Climbing Cleveland Center
08:12AM 42.6997 -78.8769 201° Southwest 253 291 11,600 2,520 Climbing Cleveland Center
08:13AM 42.6275 -78.9128 200° South 270 311 14,200 2,100 Climbing Cleveland Center
08:14AM 42.5486 -78.9514 200° South 281 323 15,800 1,680 Climbing Cleveland Center
08:15AM 42.4597 -78.9931 199° South 318 366 17,600 1,680 Climbing Cleveland Center
08:16AM 42.3625 -79.0433 201° Southwest 353 406 19,200 1,680 Climbing Cleveland Center
08:17AM 42.2822 -79.1239 217° Southwest 370 426 21,000 1,800 Climbing Cleveland Center
08:18AM 42.2817 -79.2669 270° West 327 376 22,900 1,980 Climbing Cleveland Center
08:19AM 42.2811 -79.4044 270° West 346 398 25,000 2,280 Climbing Cleveland Center
08:20AM 42.2806 -79.5561 270° West 363 418 27,500 1,860 Climbing Cleveland Center
08:21AM 42.2797 -79.6881 270° West 363 418 28,800 1,200 Climbing Cleveland Center
08:22AM 42.2744 -79.8228 267° West 363 418 29,900 2,580 Climbing Cleveland Center
08:23AM 42.2731 -79.9575 269° West 363 418 34,000 960 Climbing Cleveland Center
08:24AM 42.2694 -80.0781 268° West 363 418 31,900 -480 Descending Cleveland Center
08:25AM 42.2658 -80.2239 268° West 363 418 33,100 900 Climbing Cleveland Center
08:26AM 42.2619 -80.3586 268° West 358 412 33,700 420 Climbing Cleveland Center
08:27AM 42.2600 -80.4878 269° West 363 418 34,000 120 Climbing Cleveland Center
08:28AM 42.2558 -80.6281 268° West 363 418 34,000  Level Cleveland Center
08:29AM 42.2517 -80.7572 268° West 363 418 34,000  Level Cleveland Center
08:30AM 42.2492 -80.8944 269° West 363 418 34,000  Level Cleveland Center
08:31AM 42.2425 -81.0264 266° West 363 418 34,000  Level Cleveland Center
08:32AM 42.2400 -81.1636 269° West 368 423 34,000  Level Cleveland Center
08:33AM 42.2350 -81.2956 267° West 363 418 34,000  Level Cleveland Center
08:34AM 42.2300 -81.4328 267° West 364 419 34,000  Level Cleveland Center
08:35AM 42.2267 -81.5644 268° West 364 419 34,000  Level Cleveland Center
08:36AM 42.2192 -81.6989 266° West 364 419 34,000  Level Cleveland Center
08:37AM 42.2158 -81.8222 268° West 364 419 34,000  Level Cleveland Center
08:38AM 42.2103 -81.9597 267° West 364 419 34,000  Level Cleveland Center
08:39AM 42.2042 -82.0997 267° West 364 419 34,000  Level Cleveland Center
08:40AM 42.1981 -82.2481 267° West 364 419 34,000  Level Cleveland Center
08:41AM 42.1917 -82.3853 266° West 364 419 34,000  Level Cleveland Center
08:42AM 42.1853 -82.5222 266° West 364 419 34,000  Level Cleveland Center
08:43AM 42.1786 -82.6622 266° West 369 425 34,000  Level Cleveland Center
08:44AM 42.1719 -82.7964 266° West 369 425 34,000  Level Cleveland Center
08:45AM 42.1672 -82.9336 267° West 364 419 34,000  Level Cleveland Center
08:46AM 42.1603 -83.0706 266° West 364 419 34,000  Level Cleveland Center
08:47AM 42.1531 -83.2047 266° West 364 419 34,000  Level Cleveland Center
08:48AM 42.1475 -83.3475 267° West 369 425 34,000  Level Cleveland Center
08:49AM 42.1381 -83.4814 265° West 369 425 34,000  Level Cleveland Center
08:50AM 42.1308 -83.6042 266° West 363 418 34,000  Level Cleveland Center
08:51AM 42.1250 -83.7383 267° West 363 418 34,000  Level Cleveland Center
08:52AM 42.1172 -83.8725 266° West 363 418 34,000  Level Cleveland Center
08:53AM 42.1089 -84.0092 265° West 363 418 34,000  Level Cleveland Center
08:54AM 42.1025 -84.1489 267° West 368 423 34,000  Level Cleveland Center
08:57AM 42.0869 -84.4322 266° West 367 422 34,000  Level Chicago Center
08:58AM 42.0794 -84.5681 266° West 365 420 34,000  Level Chicago Center
08:59AM 42.0689 -84.7308 265° West 364 419 34,000  Level Chicago Center
09:00AM 42.0606 -84.8683 265° West 368 423 34,000  Level Chicago Center
09:01AM 42.0514 -85.0036 265° West 366 421 34,000  Level Chicago Center
09:02AM 42.0419 -85.1397 265° West 366 421 34,000  Level Chicago Center
09:03AM 42.0325 -85.2753 265° West 364 419 34,000  Level Chicago Center
09:04AM 42.0231 -85.4089 265° West 361 415 34,000  Level Chicago Center
09:05AM 42.0142 -85.5425 265° West 360 414 34,000  Level Chicago Center
09:06AM 42.0044 -85.6878 265° West 358 412 34,000  Level Chicago Center
09:07AM 41.9950 -85.8197 265° West 359 413 34,000  Level Chicago Center
09:08AM 41.9844 -85.9522 264° West 360 414 34,000  Level Chicago Center
09:09AM 41.9722 -86.1133 264° West 363 418 34,000  Level Chicago Center
09:10AM 41.9631 -86.2478 265° West 364 419 34,000  Level Chicago Center
09:11AM 41.9536 -86.3839 265° West 366 421 34,000  Level Chicago Center
09:12AM 41.9422 -86.5189 264° West 366 421 34,000  Level Chicago Center
09:13AM 41.9314 -86.6533 264° West 365 420 34,000  Level Chicago Center
09:14AM 41.9197 -86.8069 264° West 363 418 34,000  Level Chicago Center
09:15AM 41.9061 -86.9417 262° West 365 420 34,000  Level Chicago Center
09:16AM 41.8958 -87.0761 264° West 363 418 34,000  Level Chicago Center
09:17AM 41.8836 -87.2106 263° West 364 419 34,000  Level Chicago Center
09:18AM 41.8725 -87.3447 264° West 365 420 34,000  Level Chicago Center
09:19AM 41.8575 -87.5058 263° West 364 419 34,000  Level Chicago Center
09:20AM 41.8461 -87.6400 264° West 366 421 34,000  Level Chicago Center
09:21AM 41.8339 -87.7750 263° West 368 423 34,000  Level Chicago Center
09:22AM 41.8219 -87.9092 263° West 366 421 34,000  Level Chicago Center
09:23AM 41.8094 -88.0431 263° West 367 422 34,000  Level Chicago Center
09:24AM 41.7944 -88.2028 263° West 365 420 34,000  Level Chicago Center
09:25AM 41.7817 -88.3356 263° West 364 419 34,000  Level Chicago Center
09:26AM 41.7689 -88.4683 263° West 363 418 34,000  Level Chicago Center
09:27AM 41.7558 -88.6000 262° West 362 417 34,000  Level Chicago Center
09:28AM 41.7422 -88.7336 262° West 364 419 34,000  Level Chicago Center
09:29AM 41.7272 -88.8917 263° West 361 415 34,000  Level Chicago Center
09:31AM 41.7133 -89.0242 262° West 362 417 34,000  Level Chicago Center
09:32AM 41.6994 -89.1558 262° West 360 414 34,000  Level Chicago Center
09:33AM 41.6867 -89.2886 263° West 362 417 34,000  Level Chicago Center
09:34AM 41.6725 -89.4219 262° West 364 419 34,000  Level Chicago Center
09:35AM 41.6575 -89.5719 262° West 362 417 34,000  Level Chicago Center
09:36AM 41.6436 -89.7044 262° West 362 417 34,000  Level Chicago Center
09:37AM 41.6289 -89.8372 262° West 362 417 34,000  Level Chicago Center
09:38AM 41.6153 -89.9692 262° West 361 415 34,000  Level Chicago Center
09:39AM 41.6000 -90.1017 261° West 362 417 34,000  Level Chicago Center
09:40AM 41.5822 -90.2608 262° West 363 418 34,000  Level Chicago Center
09:41AM 41.5661 -90.3964 261° West 367 422 34,000  Level Chicago Center
09:42AM 41.5514 -90.5272 261° West 359 413 34,000  Level Chicago Center
09:43AM 41.5358 -90.6561 261° West 362 417 34,000 -480 Level Chicago Center
09:44AM 41.5206 -90.7933 262° West 363 418 33,100 -540 Descending Chicago Center
09:45AM 41.5044 -90.9247 261° West 362 417 33,000 -540 Descending Chicago Center
09:46AM 41.4847 -91.0853 261° West 367 422 32,000 -540 Descending Chicago Center
09:47AM 41.4689 -91.2217 261° West 373 429 32,000  Level Chicago Center
09:48AM 41.4525 -91.3525 261° West 374 430 32,000  Level Chicago Center
09:49AM 41.4353 -91.4869 260° West 372 428 32,000  Level Chicago Center
09:50AM 41.4192 -91.6233 261° West 373 429 32,000  Level Chicago Center
09:51AM 41.3983 -91.7878 260° West 376 433 32,000  Level Chicago Center
09:52AM 41.3817 -91.9231 261° West 374 430 32,000  Level Chicago Center
09:53AM 41.3633 -92.0589 260° West 375 432 32,000  Level Chicago Center
09:54AM 41.3461 -92.1958 261° West 375 432 32,000  Level Chicago Center
09:55AM 41.3286 -92.3308 260° West 375 432 32,000  Level Chicago Center
09:56AM 41.3086 -92.4747 260° West 379 436 32,000  Level Chicago Center
09:57AM 41.2903 -92.6128 260° West 382 440 32,000  Level Chicago Center
09:58AM 41.2797 -92.6967 261° West 381 438 32,000  Level Minneapolis Center
09:59AM 41.2608 -92.8303 259° West 376 433 32,000  Level Minneapolis Center
10:00AM 41.2428 -92.9658 260° West 377 434 32,000  Level Minneapolis Center
10:01AM 41.2233 -93.1003 259° West 375 432 32,000  Level Minneapolis Center
10:02AM 41.2050 -93.2361 260° West 377 434 32,000  Level Minneapolis Center
10:03AM 41.1856 -93.3708 259° West 375 432 32,000  Level Minneapolis Center
10:04AM 41.1633 -93.5300 260° West 371 427 32,000 60 Level Minneapolis Center
10:05AM 41.1444 -93.6653 260° West 373 429 32,200 660 Climbing Minneapolis Center
10:06AM 41.1244 -93.8028 259° West 380 437 33,400 1,080 Climbing Minneapolis Center
10:07AM 41.1033 -93.9386 258° West 381 438 34,500 780 Climbing Minneapolis Center
10:08AM 41.0850 -94.0744 260° West 380 437 35,000 240 Climbing Minneapolis Center
10:09AM 41.0633 -94.2114 258° West 380 437 35,000  Level Minneapolis Center
10:10AM 41.0436 -94.3464 259° West 379 436 35,000  Level Minneapolis Center
10:11AM 41.0192 -94.5081 259° West 376 433 35,000  Level Minneapolis Center
10:12AM 40.9989 -94.6397 259° West 379 436 35,000  Level Minneapolis Center
10:13AM 40.9772 -94.7756 258° West 378 435 35,000 60 Level Minneapolis Center
10:14AM 40.9558 -94.9114 258° West 376 433 35,200 480 Climbing Minneapolis Center
10:15AM 40.9353 -95.0472 259° West 375 432 36,000 360 Climbing Minneapolis Center
10:16AM 40.9136 -95.1842 258° West 377 434 36,000  Level Minneapolis Center
10:17AM 40.8914 -95.3206 258° West 378 435 36,000  Level Minneapolis Center
10:18AM 40.8689 -95.4594 258° West 382 440 36,000  Level Minneapolis Center
10:19AM 40.8428 -95.6228 258° West 379 436 36,000  Level Minneapolis Center
10:20AM 40.8206 -95.7578 258° West 376 433 36,000  Level Minneapolis Center
10:21AM 40.7981 -95.8939 258° West 377 434 36,000  Level Minneapolis Center
10:22AM 40.7767 -96.0297 258° West 377 434 36,000  Level Minneapolis Center
10:23AM 40.7539 -96.1656 258° West 378 435 36,000  Level Minneapolis Center
10:24AM 40.7303 -96.3014 257° West 378 435 36,000  Level Minneapolis Center
10:25AM 40.7078 -96.4353 258° West 375 432 36,000  Level Minneapolis Center
10:26AM 40.6847 -96.5711 257° West 376 433 36,000  Level Minneapolis Center
10:28AM 40.6619 -96.7056 257° West 376 433 36,000  Level Minneapolis Center
10:29AM 40.6347 -96.8667 257° West 377 434 36,000  Level Minneapolis Center
10:30AM 40.6100 -97.0022 257° West 378 435 36,000  Level Minneapolis Center
10:31AM 40.5819 -97.1639 257° West 378 435 36,000  Level Minneapolis Center
10:32AM 40.5575 -97.3000 257° West 381 438 36,000  Level Minneapolis Center
10:33AM 40.5322 -97.4419 257° West 378 435 36,000  Level Minneapolis Center
10:34AM 40.5078 -97.5769 257° West 378 435 36,000  Level Minneapolis Center
10:35AM 40.4831 -97.7108 256° West 377 434 36,000  Level Minneapolis Center
10:36AM 40.4589 -97.8458 257° West 377 434 36,000  Level Minneapolis Center
10:37AM 40.4342 -97.9786 256° West 375 432 36,000  Level Minneapolis Center
10:38AM 40.4097 -98.1114 256° West 374 430 36,000  Level Minneapolis Center
10:39AM 40.3844 -98.2447 256° West 374 430 36,000  Level Minneapolis Center
10:40AM 40.3592 -98.3789 256° West 376 433 36,000  Level Minneapolis Center
10:41AM 40.3339 -98.5139 256° West 378 435 36,000  Level Minneapolis Center
10:42AM 40.3086 -98.6489 256° West 379 436 36,000  Level Minneapolis Center
10:43AM 40.2772 -98.8106 256° West 380 437 36,000  Level Minneapolis Center
10:44AM 40.2517 -98.9444 256° West 379 436 36,000  Level Minneapolis Center
10:45AM 40.2253 -99.0792 256° West 380 437 36,000  Level Minneapolis Center
10:46AM 40.1992 -99.2136 256° West 380 437 36,000  Level Minneapolis Center
10:47AM 40.1711 -99.3483 255° West 382 440 36,000  Level Minneapolis Center
10:48AM 40.1453 -99.4831 256° West 382 440 36,000  Level Minneapolis Center
10:49AM 40.1194 -99.6175 256° West 381 438 36,000  Level Minneapolis Center
10:50AM 40.0869 -99.7761 255° West 377 434 36,000  Level Minneapolis Center
10:51AM 40.0572 -99.9183 255° West 374 430 36,000  Level Denver Center
10:52AM 40.0264 -100.0678 255° West 378 435 36,000  Level Denver Center
10:54AM 39.9994 -100.2000 255° West 376 433 36,000  Level Denver Center
10:55AM 39.9703 -100.3411 255° West 376 433 36,000  Level Denver Center
10:56AM 39.9436 -100.4661 254° West 375 432 36,000  Level Denver Center
10:57AM 39.9178 -100.5908 255° West 373 429 36,000  Level Denver Center
10:58AM 39.8875 -100.7331 255° West 368 423 36,000  Level Denver Center
10:59AM 39.8617 -100.8569 255° West 368 423 36,000  Level Denver Center
11:00AM 39.8319 -101.0019 255° West 370 426 36,000  Level Denver Center
11:01AM 39.8053 -101.1228 254° West 367 422 36,000  Level Denver Center
11:02AM 39.7750 -101.2639 254° West 364 419 36,000  Level Denver Center
11:03AM 39.7472 -101.3881 254° West 372 428 36,000  Level Denver Center
11:04AM 39.7203 -101.5094 254° West 367 422 36,000  Level Denver Center
11:05AM 39.6894 -101.6522 254° West 366 421 36,000  Level Denver Center
11:06AM 39.6622 -101.7742 254° West 367 422 36,000  Level Denver Center
11:07AM 39.6294 -101.9192 254° West 373 429 36,000  Level Denver Center
11:08AM 39.6019 -102.0433 254° West 374 430 36,000  Level Denver Center
11:09AM 39.5683 -102.1881 253° West 374 430 36,000  Level Denver Center
11:10AM 39.5417 -102.3139 255° West 377 434 36,000  Level Denver Center
11:11AM 39.5097 -102.4458 253° West 374 430 36,000  Level Denver Center
11:12AM 39.4806 -102.5778 254° West 378 435 36,000  Level Denver Center
11:13AM 39.4497 -102.7081 253° West 376 433 36,000  Level Denver Center
11:14AM 39.4147 -102.8600 253° West 374 430 36,000  Level Denver Center
11:15AM 39.3836 -102.9914 253° West 378 435 36,000  Level Denver Center
11:16AM 39.3531 -103.1228 253° West 379 436 36,000  Level Denver Center
11:17AM 39.3222 -103.2547 253° West 379 436 36,000  Level Denver Center
11:18AM 39.2903 -103.3869 253° West 384 442 36,000  Level Denver Center
11:19AM 39.2586 -103.5200 253° West 384 442 36,000  Level Denver Center
11:20AM 39.2256 -103.6539 252° West 386 444 36,000  Level Denver Center
11:21AM 39.1881 -103.8108 253° West 389 448 36,000  Level Denver Center
11:22AM 39.1556 -103.9464 253° West 390 449 36,000  Level Denver Center
11:23AM 39.1219 -104.0817 252° West 391 450 36,000  Level Denver Center
11:25AM 39.0892 -104.2161 253° West 390 449 36,000  Level Denver Center
11:26AM 39.0556 -104.3503 252° West 389 448 36,000  Level Denver Center
11:27AM 39.0225 -104.4833 252° West 387 445 36,000  Level Denver Center
11:28AM 38.9894 -104.6167 252° West 387 445 36,000  Level Denver Center
11:29AM 38.9561 -104.7469 252° West 382 440 36,000  Level Denver Center
11:30AM 38.9242 -104.8769 253° West 378 435 36,000  Level Denver Center
11:31AM 38.8836 -105.0322 251° West 388 447 36,000  Level Denver Center
11:32AM 38.8500 -105.1642 252° West 385 443 36,000  Level Denver Center
11:33AM 38.8169 -105.2942 252° West 380 437 36,000  Level Denver Center
11:34AM 38.7836 -105.4239 252° West 379 436 36,000  Level Denver Center
11:35AM 38.7492 -105.5539 251° West 382 440 36,000  Level Denver Center
11:36AM 38.7156 -105.6847 252° West 382 440 36,000  Level Denver Center
11:37AM 38.6817 -105.8122 251° West 375 432 36,000  Level Denver Center
11:38AM 38.6483 -105.9375 251° West 370 426 36,000  Level Denver Center
11:39AM 38.6131 -106.0708 251° West 368 423 36,000  Level Denver Center
11:40AM 38.5775 -106.2042 251° West 363 418 36,000  Level Denver Center
11:41AM 38.5453 -106.3256 251° West 359 413 36,000  Level Denver Center
11:42AM 38.5119 -106.4483 251° West 363 418 36,000  Level Denver Center
11:43AM 38.4789 -106.5711 251° West 364 419 36,000  Level Denver Center
11:44AM 38.4453 -106.6922 251° West 361 415 36,000  Level Denver Center
11:45AM 38.4108 -106.8183 251° West 373 429 36,000  Level Denver Center
11:46AM 38.3692 -106.9700 251° West 376 433 36,000  Level Denver Center
11:47AM 38.3336 -107.0981 251° West 381 438 36,000  Level Denver Center
11:48AM 38.2969 -107.2322 251° West 386 444 36,000  Level Denver Center
11:49AM 38.2642 -107.3517 251° West 376 433 36,000  Level Denver Center
11:50AM 38.2247 -107.4922 250° West 376 433 36,000  Level Denver Center
11:51AM 38.1903 -107.6119 250° West 376 433 36,000  Level Denver Center
11:52AM 38.1525 -107.7475 251° West 366 421 36,000  Level Denver Center
11:53AM 38.1194 -107.8639 250° West 365 420 36,000  Level Denver Center
11:55AM 38.0800 -107.9994 250° West 366 421 36,000  Level Denver Center
11:56AM 38.0456 -108.1222 250° West 363 418 36,000  Level Denver Center
11:57AM 38.0117 -108.2375 250° West 365 420 36,000  Level Denver Center
11:58AM 37.9714 -108.3742 250° West 369 425 36,000  Level Denver Center
11:59AM 37.9378 -108.4917 250° West 371 427 36,000  Level Denver Center
12:00PM 37.8989 -108.6256 250° West 367 422 36,000  Level Denver Center
12:01PM 37.8647 -108.7394 249° West 364 419 36,000  Level Denver Center
12:02PM 37.8250 -108.8778 250° West 372 428 36,000  Level Denver Center
12:03PM 37.7928 -108.9908 250° West 363 418 36,000  Level Denver Center
12:04PM 37.7656 -109.1081 254° West 364 419 36,000  Level Denver Center
12:05PM 37.7308 -109.2433 252° West 364 419 36,000 -420 Level Denver Center
12:06PM 37.7022 -109.3606 253° West 365 420 35,200 -960 Descending Denver Center
12:07PM 37.6694 -109.4944 253° West 360 414 34,100 -600 Descending Denver Center
12:08PM 37.6406 -109.6053 252° West 349 402 34,000 -60 Descending Denver Center
12:09PM 37.6072 -109.7358 252° West 351 404 34,000  Level Denver Center
12:10PM 37.5786 -109.8497 252° West 355 409 34,000  Level Denver Center
12:11PM 37.5456 -109.9800 252° West 354 407 34,000  Level Denver Center
12:12PM 37.5158 -110.0933 252° West 356 410 34,000  Level Denver Center
12:13PM 37.4856 -110.2122 252° West 356 410 34,000  Level Denver Center
12:14PM 37.4611 -110.3072 252° West 357 411 34,000  Level Denver Center
12:15PM 37.4181 -110.4714 252° West 353 406 34,000  Level Denver Center
12:16PM 37.3869 -110.5894 252° West 357 411 34,000  Level Denver Center
12:17PM 37.3567 -110.7056 252° West 352 405 34,000 -300 Level Denver Center
12:18PM 37.3261 -110.8228 252° West 353 406 33,500 -660 Descending Denver Center
12:19PM 37.2950 -110.9389 251° West 352 405 32,700 -780 Descending Denver Center
12:20PM 37.2644 -111.0533 251° West 348 400 32,000 -360 Descending Denver Center
12:21PM 37.2278 -111.1903 251° West 345 397 32,000  Level Denver Center
12:22PM 37.1975 -111.3025 251° West 342 394 32,000  Level Denver Center
12:23PM 37.1669 -111.4150 251° West 341 392 32,000  Level Denver Center
12:24PM 37.1381 -111.5258 252° West 337 388 32,000  Level Denver Center
12:26PM 37.1081 -111.6378 251° West 337 388 32,000  Level Denver Center
12:27PM 37.0772 -111.7531 251° West 345 397 32,000 -60 Level Denver Center
12:28PM 37.0386 -111.8908 251° West 348 400 31,900 -600 Descending Denver Center
12:29PM 37.0075 -112.0028 251° West 344 396 30,800 -1,020 Descending Denver Center
12:30PM 36.9769 -112.1142 251° West 341 392 29,900 -960 Descending Denver Center
12:30PM 36.9575 -112.1803 250° West 339 390 29,300 -1,020 Descending Los Angeles Center
12:31PM 36.9258 -112.2914 250° West 339 390 28,300 -660 Descending Los Angeles Center
12:32PM 36.8956 -112.4036 251° West 340 391 28,000 -180 Descending Los Angeles Center
12:33PM 36.8719 -112.5183 256° West 341 392 28,000  Level Los Angeles Center
12:34PM 36.8478 -112.6586 258° West 344 396 28,000  Level Los Angeles Center
12:35PM 36.8269 -112.7728 257° West 341 392 28,000  Level Los Angeles Center
12:36PM 36.8019 -112.8864 255° West 339 390 28,000  Level Los Angeles Center
12:37PM 36.7742 -112.9981 253° West 339 390 28,000  Level Los Angeles Center
12:39PM 36.7458 -113.1086 252° West 336 387 28,000  Level Los Angeles Center
12:40PM 36.7175 -113.2197 252° West 336 387 28,000  Level Los Angeles Center
12:41PM 36.6903 -113.3300 253° West 335 386 28,000  Level Los Angeles Center
12:42PM 36.6558 -113.4642 252° West 337 388 28,000 -600 Level Los Angeles Center
12:43PM 36.6300 -113.5708 253° West 325 374 26,800 -1,860 Descending Los Angeles Center
12:44PM 36.6056 -113.6675 253° West 299 344 24,200 -2,220 Descending Los Angeles Center
12:45PM 36.5800 -113.7653 252° West 298 343 22,300 -1,500 Descending Los Angeles Center
12:46PM 36.5569 -113.8569 253° West 281 323 21,200 -1,020 Descending Los Angeles Center
12:47PM 36.5344 -113.9433 252° West 267 307 20,200 -1,080 Descending Los Angeles Center
12:48PM 36.5092 -114.0431 253° West 259 298 19,000 -1,200 Descending Los Angeles Center
12:49PM 36.4875 -114.1258 252° West 254 292 17,800 -1,200 Descending Los Angeles Center
12:49PM 36.4742 -114.1714 250° West 254 292 17,200 -1,260 Descending Los Angeles Center
12:50PM 36.4656 -114.2103 255° West 256 295 16,500 -1,620 Descending Los Angeles Center
12:51PM 36.4428 -114.3108 254° West 286 329 14,800 -1,620 Descending Los Angeles Center
12:52PM 36.3975 -114.3797 231° Southwest 296 341 13,500 -1,440 Descending Los Angeles Center
12:53PM 36.3244 -114.4208 204° Southwest 285 328 12,100 -1,320 Descending Los Angeles Center
12:54PM 36.2461 -114.4581 201° Southwest 281 323 10,700 -900 Descending Los Angeles Center
12:55PM 36.1944 -114.4972 211° Southwest 262 302 10,400 -480 Descending Los Angeles Center
12:55PM 36.1839 -114.5150 234° Southwest 246 283 10,200 -900 Descending Los Angeles Center
12:56PM 36.1567 -114.5711 239° Southwest 235 270 9,400 -1,140 Descending Los Angeles Center
12:57PM 36.1186 -114.6428 237° Southwest 234 269 8,200 -900 Descending Los Angeles Center
12:57PM 36.1197 -114.6372 76° East 234 269 8,300 -180 Climbing Los Angeles Center
12:58PM 36.0789 -114.7175 238° Southwest 232 267 8,000 -600 Descending Los Angeles Center
12:59PM 36.0744 -114.7856 265° West 224 258 7,300 -780 Descending Los Angeles Center
12:59PM 36.0733 -114.7925 259° West 229 264 7,100 -900 Descending Los Angeles Center
01:00PM 36.0736 -114.8603 270° West 219 252 6,400 -1,080 Descending Los Angeles Center
01:00PM 36.0742 -114.8836 272° West 223 257 6,000 -1,320 Descending Los Angeles Center
01:01PM 36.0733 -114.9375 269° West 208 239 5,100 -1,200 Descending Los Angeles Center
01:01PM 36.0736 -114.9556 271° West 219 252 4,800 -1,020 Descending Los Angeles Center
01:02PM 36.0736 -114.9986 270° West 177 204 4,100 -1,020 Descending Los Angeles Center
01:02PM 36.0742 -115.0153 272° West 199 229 3,800 -900 Descending Los Angeles Center
01:03PM 36.0739 -115.0492 269° West 157 181 3,300 -780 Descending Los Angeles Center
01:03PM 36.0739 -115.0669 270° West 173 199 3,000 -960 Descending Los Angeles Center
01:04PM 36.0744 -115.1208 271° West 159 183 2,100 -1,080 Descending Los Angeles Center
01:06PM 36.0667 -115.1500 219° Southwest  Level FlightAware Approximate